METAR Data
IDs: Format: Raw Decoded Include TAF

Data at: 1829 UTC 23 Apr 2019

KCNM 231753Z AUTO 32010KT 10SM BKN021 OVC027 16/11 A3007 RMK AO2 SLP151 T01560106 10156 20122 58001
KCNM 231653Z AUTO 34010KT 10SM OVC018 14/10 A3009 RMK AO2 SLP157 T01440100
KCNM 231553Z AUTO 33011KT 10SM OVC016 14/10 A3009 RMK AO2 SLP158 T01390100
KCNM 231453Z AUTO 34012KT 10SM OVC016 13/10 A3008 RMK AO2 SLP152 T01330100 51013
KCNM 231353Z AUTO 34015KT 10SM OVC018 13/10 A3007 RMK AO2 SLP148 T01280100
KCNM 231318Z AUTO 34015G21KT 10SM SCT011 OVC018 12/11 A3006 RMK AO2 T01220106
KCNM 231301Z AUTO 34013G22KT 10SM OVC013 12/11 A3006 RMK AO2 T01220106
KCNM 231253Z AUTO 33014KT 10SM OVC015 12/11 A3005 RMK AO2 SLP140 T01220106
KCNM 231153Z AUTO 32016KT 10SM BKN011 OVC045 12/11 A3004 RMK AO2 SLP133 60007 70078 T01220106 10144 20122 55003
KCNM 231141Z AUTO 32014KT 10SM BKN011 OVC045 12/11 A3003 RMK AO2 T01220106
KCNM 231133Z AUTO 33016KT 10SM SCT012 OVC045 12/11 A3003 RMK AO2 T01220111
KCNM 231053Z AUTO 33014KT 10SM BKN011 OVC045 13/11 A3002 RMK AO2 SLP126 T01280111
KCNM 230953Z AUTO 32013KT 10SM OVC010 12/11 A3001 RMK AO2 WSHFT 0850 LTG DSNT NE RAE24 SLP125 P0007 T01220111
KCNM 230943Z AUTO 32009KT 10SM BKN010 12/11 A3001 RMK AO2 WSHFT 0850 LTG DSNT NE RAE24 P0007 T01220111
KCNM 230935Z AUTO 32011KT 10SM SCT009 BKN023 12/11 A3001 RMK AO2 WSHFT 0850 LTG DSNT NE RAE24 P0007 T01220111
KCNM 230926Z AUTO 32014KT 10SM VCTS FEW009 SCT026 SCT075 12/11 A3000 RMK AO2 WSHFT 0850 LTG DSNT N AND NE RAE24 P0007 T01220111
KCNM 230914Z AUTO 32014KT 10SM VCTS -RA FEW016 BKN026 OVC070 12/11 A3000 RMK AO2 WSHFT 0850 LTG DSNT N AND NE P0007 T01220111
KCNM 230906Z AUTO 36017G22KT 7SM -RA FEW016 BKN039 OVC075 12/11 A2997 RMK AO2 WSHFT 0850 LTG DSNT N PRESFR P0006 T01220111
KCNM 230853Z AUTO 30012G24KT 10SM -RA FEW016 OVC027 13/11 A3005 RMK AO2 LTG DSNT S RAB50 SLP138 P0000 60000 T01280111 53002
KCNM 230846Z AUTO 29019G24KT 10SM BKN023 OVC030 13/11 A3004 RMK AO2 LTG DSNT S T01280111
KCNM 230814Z AUTO 33013KT 10SM SCT021 OVC030 13/11 A3003 RMK AO2 T01280111
KCNM 230753Z AUTO 32010KT 10SM BKN020 OVC030 13/11 A3003 RMK AO2 LTG DSNT NE RAE03 SLP134 P0000 T01280111
KCNM 230710Z AUTO 31011KT 10SM OVC016 13/11 A3005 RMK AO2 RAE03 P0000 T01280106
KCNM 230653Z AUTO 32014KT 10SM -RA OVC014 13/11 A3005 RMK AO2 RAB52 SLP143 P0000 T01280111 402440128
KCNM 230632Z AUTO 34013KT 10SM OVC010 13/11 A3005 RMK AO2 T01330111
KCNM 230553Z AUTO 35010KT 10SM FEW009 BKN025 14/13 A3004 RMK AO2 SLP136 60071 T01440133 10217 20133 51026
KCNM 230453Z AUTO 01010KT 10SM BKN110 14/13 A3001 RMK AO2 LTG DSNT NE-SE SLP128 T01390133
KCNM 230406Z AUTO 02009KT 10SM FEW038 SCT050 BKN080 14/12 A3002 RMK AO2 LTG DSNT N-SE T01440122
KCNM 230353Z AUTO VRB05KT 10SM VCTS SCT047 BKN070 BKN090 14/12 A3003 RMK AO2 PK WND 26032/0309 WSHFT 0306 LTG DSNT N-SE RAE50 TSE38 SLP132 P0071 T01440122
KCNM 230338Z AUTO 00000KT 8SM VCTS -RA SCT018 OVC070 14/13 A3002 RMK AO2 PK WND 26032/0309 WSHFT 0306 LTG DSNT ALQDS TSE38 P0071 T01390128
KCNM 230329Z AUTO 29011G21KT 4SM -TSRA BR SCT018 BKN022 OVC065 14/13 A3002 RMK AO2 PK WND 26032/0309 WSHFT 0306 LTG DSNT ALQDS P0070 T01390128
KCNM 230324Z AUTO 29012G21KT 1SM +TSRA BR SCT018 BKN024 OVC065 13/13 A3002 RMK AO2 PK WND 26032/0309 WSHFT 0306 LTG DSNT ALQDS P0070 T01330128
KCNM 230313Z AUTO 26021G32KT 3/4SM +TSRA BR FEW014 BKN022 OVC070 14/13 A3001 RMK AO2 PK WND 26032/0309 LTG DSNT ALQDS P0039 T01440128
KCNM 230305Z AUTO VRB06KT 2 1/2SM +TSRA BKN024 BKN033 OVC080 17/13 A3000 RMK AO2 LTG DSNT ALQDS PRESRR P0012 T01720133
KCNM 230253Z AUTO 05013KT 10SM -TSRA FEW024 BKN070 OVC080 18/13 A2995 RMK AO2 LTG DSNT S-NW RAB30 TSB41 SLP103 P0000 60000 T01780133 53006
KCNM 230238Z AUTO 06016G21KT 9SM VCTS -RA SCT030 BKN080 OVC110 18/13 A2994 RMK AO2 LTG DSNT S-NW RAB30 P0000 T01830133
KCNM 230153Z AUTO 04012KT 10SM CLR 20/12 A2995 RMK AO2 SLP101 T02000117
KCNM 230053Z AUTO 07010KT 10SM CLR 22/09 A2993 RMK AO2 SLP091 T02170094
KCNM 222353Z AUTO 07008KT 10SM CLR 23/08 A2993 RMK AO2 SLP091 T02330078 10244 20183 56019
KCNM 222253Z AUTO 04005KT 10SM CLR 23/07 A2994 RMK AO2 SLP094 T02330067
KCNM 222153Z AUTO VRB06KT 10SM BKN110 22/08 A2996 RMK AO2 SLP101 T02220078
KCNM 222053Z AUTO 35008KT 10SM OVC110 20/08 A3000 RMK AO2 SLP115 T02000078 58018
KCNM 221953Z AUTO 35010KT 10SM FEW060 FEW075 BKN100 19/07 A3004 RMK AO2 SLP130 T01890072
KCNM 221853Z AUTO 33018KT 10SM FEW110 19/07 A3003 RMK AO2 SLP127 T01890067
KCNM 221753Z AUTO 33016KT 10SM CLR 19/06 A3005 RMK AO2 PK WND 31034/1658 RAB1659E09 SLP137 P0000 60000 T01890061 10200 20156 51023
KCNM 221653Z AUTO 32027KT 10SM SCT110 18/06 A3004 RMK AO2 PK WND 31031/1652 SLP130 T01830061
KCNM 221553Z AUTO 31020G23KT 10SM CLR 19/M02 A3000 RMK AO2 SLP115 T01941017
KCNM 221453Z AUTO 30003KT 10SM CLR 18/12 A2998 RMK AO2 SLP104 T01830117 53025
KCNM 221353Z AUTO 00000KT 10SM CLR 18/12 A2995 RMK AO2 SLP094 T01780117
KCNM 221253Z AUTO 07003KT 10SM CLR 16/10 A2992 RMK AO2 SLP083 T01560100
KCNM 221153Z AUTO 15005KT 10SM CLR 17/11 A2990 RMK AO2 SLP072 T01720106 10206 20167 53006
KCNM 221053Z AUTO 13006KT 10SM CLR 17/08 A2989 RMK AO2 SLP066 T01720083
KCNM 220953Z AUTO 14007KT 10SM CLR 18/02 A2989 RMK AO2 SLP066 T01780017
KCNM 220853Z AUTO 14004KT 10SM CLR 18/02 A2988 RMK AO2 SLP063 T01830022 53001
KCNM 220753Z AUTO 15010KT 10SM CLR 19/08 A2988 RMK AO2 SLP062 T01940083
KCNM 220653Z AUTO 26009KT 10SM CLR 18/M02 A2988 RMK AO2 SLP062 T01831022 403220144